Leonard, North Dakota
Current Conditions -  °F | °C
As of 10:53 PM on Wednesday 22 Oct 2014 (Local Time) from KFAR Reporting Station
Clear Clear  
Wind Chill: 53°   Ceiling: Unl
Heat Index: 53°   Visibility: 10mi
Dew Point: 50°   Wind: 10mph
Humidity: 89%   Direction: 200°SSW
Pressure: 29.9"   Gusts: NA
Location:  46.65°N, 97.25°W
Report Text: KFAR 230353Z 20009KT 10SM CLR 12/10 A2990 RMK AO2 SLP126 T01170100
Loading
Personal Weather Stations






























Interactive Weather Map
Tropical Storm Tracking
New forecast layout! Learn more

10-Day Weather Forecast

Advertisements
Track Severe Weather on mobile